Terminal Aerodrome Forecast
Issued by NWS Grand Forks, ND

Home | Current Version | Previous Version | Text Only | Print | Product List | Glossary Off
Versions: 1 2 3 4 5 6 7 8 9 10 11 12 13

000
FTUS43 KFGF 231729
TAFFAR
TAF
KFAR 231729Z 2318/2418 31017G25KT P6SM OVC035
     FM231900 31020G28KT P6SM BKN050
     FM240000 32018G25KT P6SM SCT050
     FM240200 32011KT P6SM SCT090
     FM240900 30010KT P6SM BKN100=

USA.gov is the U.S. government's official web portal to all federal, state and local government web resources and services.